sensor_id;sensor_type;location;lat;lon;timestamp;temperature;humidity
23731;DHT22;12046;44.702;10.622;2022-08-14T00:00:43;22.20;93.60
23731;DHT22;12046;44.702;10.622;2022-08-14T00:03:18;22.20;93.60
23731;DHT22;12046;44.702;10.622;2022-08-14T00:05:44;22.10;93.60
23731;DHT22;12046;44.702;10.622;2022-08-14T00:08:10;22.00;94.10
23731;DHT22;12046;44.702;10.622;2022-08-14T00:10:36;22.00;93.90
23731;DHT22;12046;44.702;10.622;2022-08-14T00:13:02;22.00;94.10
23731;DHT22;12046;44.702;10.622;2022-08-14T00:15:36;22.00;94.10
23731;DHT22;12046;44.702;10.622;2022-08-14T00:18:04;22.00;94.10
23731;DHT22;12046;44.702;10.622;2022-08-14T00:20:34;22.00;94.10
23731;DHT22;12046;44.702;10.622;2022-08-14T00:23:02;22.10;94.20
23731;DHT22;12046;44.702;10.622;2022-08-14T00:25:28;22.10;94.20
23731;DHT22;12046;44.702;10.622;2022-08-14T00:27:54;22.10;94.30
23731;DHT22;12046;44.702;10.622;2022-08-14T00:30:20;22.10;94.40
23731;DHT22;12046;44.702;10.622;2022-08-14T00:32:46;22.10;94.50
23731;DHT22;12046;44.702;10.622;2022-08-14T00:35:12;22.10;94.40
23731;DHT22;12046;44.702;10.622;2022-08-14T00:37:40;22.10;94.60
23731;DHT22;12046;44.702;10.622;2022-08-14T00:40:08;22.10;94.70
23731;DHT22;12046;44.702;10.622;2022-08-14T00:42:34;22.10;94.80
23731;DHT22;12046;44.702;10.622;2022-08-14T00:45:00;22.10;94.90
23731;DHT22;12046;44.702;10.622;2022-08-14T00:47:26;22.10;95.10
23731;DHT22;12046;44.702;10.622;2022-08-14T00:49:53;22.10;95.20
23731;DHT22;12046;44.702;10.622;2022-08-14T00:52:21;22.10;95.30
23731;DHT22;12046;44.702;10.622;2022-08-14T00:54:49;22.10;95.40
23731;DHT22;12046;44.702;10.622;2022-08-14T00:57:18;22.10;95.50
23731;DHT22;12046;44.702;10.622;2022-08-14T00:59:45;22.10;95.70
23731;DHT22;12046;44.702;10.622;2022-08-14T01:02:11;22.10;95.80
23731;DHT22;12046;44.702;10.622;2022-08-14T01:04:40;22.10;95.80
23731;DHT22;12046;44.702;10.622;2022-08-14T01:07:09;22.10;95.90
23731;DHT22;12046;44.702;10.622;2022-08-14T01:09:36;22.10;95.90
23731;DHT22;12046;44.702;10.622;2022-08-14T01:12:03;22.10;96.10
23731;DHT22;12046;44.702;10.622;2022-08-14T01:14:30;22.00;96.20
23731;DHT22;12046;44.702;10.622;2022-08-14T01:16:56;22.00;96.40
23731;DHT22;12046;44.702;10.622;2022-08-14T01:19:23;22.00;96.60
23731;DHT22;12046;44.702;10.622;2022-08-14T01:22:09;21.90;96.70
23731;DHT22;12046;44.702;10.622;2022-08-14T01:24:35;21.90;96.90
23731;DHT22;12046;44.702;10.622;2022-08-14T01:27:02;21.90;97.00
23731;DHT22;12046;44.702;10.622;2022-08-14T01:29:30;21.80;97.10
23731;DHT22;12046;44.702;10.622;2022-08-14T01:32:03;21.80;97.40
23731;DHT22;12046;44.702;10.622;2022-08-14T01:34:30;21.80;97.60
23731;DHT22;12046;44.702;10.622;2022-08-14T01:36:58;21.70;97.70
23731;DHT22;12046;44.702;10.622;2022-08-14T01:39:25;21.70;97.70
23731;DHT22;12046;44.702;10.622;2022-08-14T01:41:51;21.60;97.80
23731;DHT22;12046;44.702;10.622;2022-08-14T01:44:22;21.50;98.10
23731;DHT22;12046;44.702;10.622;2022-08-14T01:46:51;21.40;98.40
23731;DHT22;12046;44.702;10.622;2022-08-14T01:49:19;21.40;98.60
23731;DHT22;12046;44.702;10.622;2022-08-14T01:51:45;21.30;98.60
23731;DHT22;12046;44.702;10.622;2022-08-14T01:54:17;21.30;98.60
23731;DHT22;12046;44.702;10.622;2022-08-14T01:56:53;21.30;98.70
23731;DHT22;12046;44.702;10.622;2022-08-14T01:59:30;21.30;99.00
23731;DHT22;12046;44.702;10.622;2022-08-14T02:02:00;21.30;99.00
23731;DHT22;12046;44.702;10.622;2022-08-14T02:04:31;21.30;98.70
23731;DHT22;12046;44.702;10.622;2022-08-14T02:06:57;21.30;98.70
23731;DHT22;12046;44.702;10.622;2022-08-14T02:09:24;21.20;98.60
23731;DHT22;12046;44.702;10.622;2022-08-14T02:11:51;21.20;98.60
23731;DHT22;12046;44.702;10.622;2022-08-14T02:14:17;21.20;98.60
23731;DHT22;12046;44.702;10.622;2022-08-14T02:16:47;21.20;98.60
23731;DHT22;12046;44.702;10.622;2022-08-14T02:19:17;21.20;98.60
23731;DHT22;12046;44.702;10.622;2022-08-14T02:21:45;21.20;98.70
23731;DHT22;12046;44.702;10.622;2022-08-14T02:24:13;21.20;99.00
23731;DHT22;12046;44.702;10.622;2022-08-14T02:26:41;21.10;99.10
23731;DHT22;12046;44.702;10.622;2022-08-14T02:29:10;21.10;99.60
23731;DHT22;12046;44.702;10.622;2022-08-14T02:31:39;21.00;99.90
23731;DHT22;12046;44.702;10.622;2022-08-14T02:34:17;20.90;99.80
23731;DHT22;12046;44.702;10.622;2022-08-14T02:36:45;20.80;99.40
23731;DHT22;12046;44.702;10.622;2022-08-14T02:39:12;20.80;99.30
23731;DHT22;12046;44.702;10.622;2022-08-14T02:41:40;20.70;99.50
23731;DHT22;12046;44.702;10.622;2022-08-14T02:44:07;20.80;99.60
23731;DHT22;12046;44.702;10.622;2022-08-14T02:46:36;20.80;99.70
23731;DHT22;12046;44.702;10.622;2022-08-14T02:49:03;20.80;99.80
23731;DHT22;12046;44.702;10.622;2022-08-14T02:51:32;20.80;99.90
23731;DHT22;12046;44.702;10.622;2022-08-14T02:53:58;20.80;99.90
23731;DHT22;12046;44.702;10.622;2022-08-14T02:56:26;20.80;99.90
23731;DHT22;12046;44.702;10.622;2022-08-14T02:58:55;20.80;99.90
23731;DHT22;12046;44.702;10.622;2022-08-14T03:01:23;20.80;99.90
23731;DHT22;12046;44.702;10.622;2022-08-14T03:03:50;20.80;99.90
23731;DHT22;12046;44.702;10.622;2022-08-14T03:06:18;20.80;99.90
23731;DHT22;12046;44.702;10.622;2022-08-14T03:08:52;20.80;99.90
23731;DHT22;12046;44.702;10.622;2022-08-14T03:11:19;20.90;99.90
23731;DHT22;12046;44.702;10.622;2022-08-14T03:13:48;20.80;99.90
23731;DHT22;12046;44.702;10.622;2022-08-14T03:16:20;20.80;99.90
23731;DHT22;12046;44.702;10.622;2022-08-14T03:18:48;20.80;99.90
23731;DHT22;12046;44.702;10.622;2022-08-14T03:21:16;20.80;99.90
23731;DHT22;12046;44.702;10.622;2022-08-14T03:23:45;20.70;99.90
23731;DHT22;12046;44.702;10.622;2022-08-14T03:26:15;20.50;99.90
23731;DHT22;12046;44.702;10.622;2022-08-14T03:28:44;20.30;99.90
23731;DHT22;12046;44.702;10.622;2022-08-14T03:31:11;20.10;99.90
23731;DHT22;12046;44.702;10.622;2022-08-14T03:33:38;19.90;99.90
23731;DHT22;12046;44.702;10.622;2022-08-14T03:36:11;19.90;99.90
23731;DHT22;12046;44.702;10.622;2022-08-14T03:38:38;19.80;99.90
23731;DHT22;12046;44.702;10.622;2022-08-14T03:41:24;19.80;99.90
23731;DHT22;12046;44.702;10.622;2022-08-14T03:43:52;19.80;99.90
23731;DHT22;12046;44.702;10.622;2022-08-14T03:46:20;19.70;99.90
23731;DHT22;12046;44.702;10.622;2022-08-14T03:48:47;19.70;99.90
23731;DHT22;12046;44.702;10.622;2022-08-14T03:51:13;19.70;99.90
23731;DHT22;12046;44.702;10.622;2022-08-14T03:53:43;19.80;99.90
23731;DHT22;12046;44.702;10.622;2022-08-14T03:56:11;19.80;99.90
23731;DHT22;12046;44.702;10.622;2022-08-14T03:58:44;19.70;99.90
23731;DHT22;12046;44.702;10.622;2022-08-14T04:01:11;19.70;99.90
23731;DHT22;12046;44.702;10.622;2022-08-14T04:03:37;19.70;99.90
23731;DHT22;12046;44.702;10.622;2022-08-14T04:06:04;19.70;99.90
23731;DHT22;12046;44.702;10.622;2022-08-14T04:08:39;19.70;99.90
23731;DHT22;12046;44.702;10.622;2022-08-14T04:11:06;19.70;99.90
23731;DHT22;12046;44.702;10.622;2022-08-14T04:13:34;19.60;99.90
23731;DHT22;12046;44.702;10.622;2022-08-14T04:16:02;19.70;99.90
23731;DHT22;12046;44.702;10.622;2022-08-14T04:18:29;19.70;99.90
23731;DHT22;12046;44.702;10.622;2022-08-14T04:20:56;19.70;99.90
23731;DHT22;12046;44.702;10.622;2022-08-14T04:23:24;19.70;99.90
23731;DHT22;12046;44.702;10.622;2022-08-14T04:25:51;19.70;99.90
23731;DHT22;12046;44.702;10.622;2022-08-14T04:28:20;19.60;99.90
23731;DHT22;12046;44.702;10.622;2022-08-14T04:30:46;19.70;99.90
23731;DHT22;12046;44.702;10.622;2022-08-14T04:33:12;19.70;99.90
23731;DHT22;12046;44.702;10.622;2022-08-14T04:35:41;19.80;99.90
23731;DHT22;12046;44.702;10.622;2022-08-14T04:38:08;19.90;99.90
23731;DHT22;12046;44.702;10.622;2022-08-14T04:40:53;20.00;99.90
23731;DHT22;12046;44.702;10.622;2022-08-14T04:43:38;20.10;99.90
23731;DHT22;12046;44.702;10.622;2022-08-14T04:46:07;20.20;99.90
23731;DHT22;12046;44.702;10.622;2022-08-14T04:48:34;20.20;99.90
23731;DHT22;12046;44.702;10.622;2022-08-14T04:51:03;20.30;99.90
23731;DHT22;12046;44.702;10.622;2022-08-14T04:53:32;20.30;99.90
23731;DHT22;12046;44.702;10.622;2022-08-14T04:55:58;20.30;99.90
23731;DHT22;12046;44.702;10.622;2022-08-14T04:58:27;20.30;99.90
23731;DHT22;12046;44.702;10.622;2022-08-14T05:00:55;20.40;99.90
23731;DHT22;12046;44.702;10.622;2022-08-14T05:03:26;20.50;99.90
23731;DHT22;12046;44.702;10.622;2022-08-14T05:05:55;20.60;99.90
23731;DHT22;12046;44.702;10.622;2022-08-14T05:08:21;20.60;99.90
23731;DHT22;12046;44.702;10.622;2022-08-14T05:10:52;20.60;99.90
23731;DHT22;12046;44.702;10.622;2022-08-14T05:13:20;20.70;99.90
23731;DHT22;12046;44.702;10.622;2022-08-14T05:15:48;20.80;99.90
23731;DHT22;12046;44.702;10.622;2022-08-14T05:18:19;20.80;99.90
23731;DHT22;12046;44.702;10.622;2022-08-14T05:20:47;20.80;99.90
23731;DHT22;12046;44.702;10.622;2022-08-14T05:23:16;20.90;99.90
23731;DHT22;12046;44.702;10.622;2022-08-14T05:25:43;20.90;99.90
23731;DHT22;12046;44.702;10.622;2022-08-14T05:28:20;21.00;99.90
23731;DHT22;12046;44.702;10.622;2022-08-14T05:30:50;21.10;99.90
23731;DHT22;12046;44.702;10.622;2022-08-14T05:33:18;21.10;99.90
23731;DHT22;12046;44.702;10.622;2022-08-14T05:35:47;21.20;99.90
23731;DHT22;12046;44.702;10.622;2022-08-14T05:38:15;21.10;99.90
23731;DHT22;12046;44.702;10.622;2022-08-14T05:40:43;21.20;99.90
23731;DHT22;12046;44.702;10.622;2022-08-14T05:43:09;21.20;99.90
23731;DHT22;12046;44.702;10.622;2022-08-14T05:45:36;21.30;99.90
23731;DHT22;12046;44.702;10.622;2022-08-14T05:48:03;21.30;99.90
23731;DHT22;12046;44.702;10.622;2022-08-14T05:50:32;21.40;99.60
23731;DHT22;12046;44.702;10.622;2022-08-14T05:52:58;21.40;99.70
23731;DHT22;12046;44.702;10.622;2022-08-14T05:55:24;21.50;99.70
23731;DHT22;12046;44.702;10.622;2022-08-14T05:57:55;21.50;99.80
23731;DHT22;12046;44.702;10.622;2022-08-14T06:00:28;21.50;99.70
23731;DHT22;12046;44.702;10.622;2022-08-14T06:02:55;21.60;99.70
23731;DHT22;12046;44.702;10.622;2022-08-14T06:05:22;21.60;99.30
23731;DHT22;12046;44.702;10.622;2022-08-14T06:07:48;21.60;99.30
23731;DHT22;12046;44.702;10.622;2022-08-14T06:10:14;21.70;99.20
23731;DHT22;12046;44.702;10.622;2022-08-14T06:12:40;21.80;99.00
23731;DHT22;12046;44.702;10.622;2022-08-14T06:15:07;21.90;98.30
23731;DHT22;12046;44.702;10.622;2022-08-14T06:17:44;21.90;97.50
23731;DHT22;12046;44.702;10.622;2022-08-14T06:20:11;21.80;97.40
23731;DHT22;12046;44.702;10.622;2022-08-14T06:22:39;21.90;97.30
23731;DHT22;12046;44.702;10.622;2022-08-14T06:25:05;22.00;96.60
23731;DHT22;12046;44.702;10.622;2022-08-14T06:27:39;22.10;96.10
23731;DHT22;12046;44.702;10.622;2022-08-14T06:30:07;22.30;95.40
23731;DHT22;12046;44.702;10.622;2022-08-14T06:32:33;22.40;94.50
23731;DHT22;12046;44.702;10.622;2022-08-14T06:35:01;22.60;94.20
23731;DHT22;12046;44.702;10.622;2022-08-14T06:37:27;22.70;93.50
23731;DHT22;12046;44.702;10.622;2022-08-14T06:39:53;22.80;93.40
23731;DHT22;12046;44.702;10.622;2022-08-14T06:42:19;23.00;93.30
23731;DHT22;12046;44.702;10.622;2022-08-14T06:44:45;23.20;93.00
23731;DHT22;12046;44.702;10.622;2022-08-14T06:47:11;23.40;92.70
23731;DHT22;12046;44.702;10.622;2022-08-14T06:49:37;23.60;92.40
23731;DHT22;12046;44.702;10.622;2022-08-14T06:52:03;23.80;92.10
23731;DHT22;12046;44.702;10.622;2022-08-14T06:54:29;23.90;92.20
23731;DHT22;12046;44.702;10.622;2022-08-14T06:56:56;24.00;91.70
23731;DHT22;12046;44.702;10.622;2022-08-14T06:59:22;24.20;91.60
23731;DHT22;12046;44.702;10.622;2022-08-14T07:01:48;24.30;91.50
23731;DHT22;12046;44.702;10.622;2022-08-14T07:04:36;24.30;91.30
23731;DHT22;12046;44.702;10.622;2022-08-14T07:07:21;24.50;91.10
23731;DHT22;12046;44.702;10.622;2022-08-14T07:09:47;24.60;91.00
23731;DHT22;12046;44.702;10.622;2022-08-14T07:12:14;24.60;90.80
23731;DHT22;12046;44.702;10.622;2022-08-14T07:14:41;24.70;91.10
23731;DHT22;12046;44.702;10.622;2022-08-14T07:17:07;24.90;90.60
23731;DHT22;12046;44.702;10.622;2022-08-14T07:19:33;25.00;90.40
23731;DHT22;12046;44.702;10.622;2022-08-14T07:21:59;25.10;90.30
23731;DHT22;12046;44.702;10.622;2022-08-14T07:24:25;25.20;90.00
23731;DHT22;12046;44.702;10.622;2022-08-14T07:26:51;25.40;90.00
23731;DHT22;12046;44.702;10.622;2022-08-14T07:29:17;25.50;90.00
23731;DHT22;12046;44.702;10.622;2022-08-14T07:31:43;25.60;89.80
23731;DHT22;12046;44.702;10.622;2022-08-14T07:34:09;25.70;90.10
23731;DHT22;12046;44.702;10.622;2022-08-14T07:36:35;25.80;90.10
23731;DHT22;12046;44.702;10.622;2022-08-14T07:39:01;25.90;90.20
23731;DHT22;12046;44.702;10.622;2022-08-14T07:41:27;26.00;90.00
23731;DHT22;12046;44.702;10.622;2022-08-14T07:43:54;26.10;90.00
23731;DHT22;12046;44.702;10.622;2022-08-14T07:46:20;26.20;89.50
23731;DHT22;12046;44.702;10.622;2022-08-14T07:48:46;26.30;89.40
23731;DHT22;12046;44.702;10.622;2022-08-14T07:51:13;26.50;89.30
23731;DHT22;12046;44.702;10.622;2022-08-14T07:53:39;26.60;88.70
23731;DHT22;12046;44.702;10.622;2022-08-14T07:56:05;26.70;88.00
23731;DHT22;12046;44.702;10.622;2022-08-14T07:58:31;26.80;88.00
23731;DHT22;12046;44.702;10.622;2022-08-14T08:00:58;26.80;88.10
23731;DHT22;12046;44.702;10.622;2022-08-14T08:03:24;26.90;87.30
23731;DHT22;12046;44.702;10.622;2022-08-14T08:05:53;27.00;87.40
23731;DHT22;12046;44.702;10.622;2022-08-14T08:08:19;26.80;87.40
23731;DHT22;12046;44.702;10.622;2022-08-14T08:10:47;26.80;88.40
23731;DHT22;12046;44.702;10.622;2022-08-14T08:13:18;26.90;88.40
23731;DHT22;12046;44.702;10.622;2022-08-14T08:15:51;27.10;88.20
23731;DHT22;12046;44.702;10.622;2022-08-14T08:18:19;27.30;87.70
23731;DHT22;12046;44.702;10.622;2022-08-14T08:20:47;27.40;86.80
23731;DHT22;12046;44.702;10.622;2022-08-14T08:23:15;27.20;86.30
23731;DHT22;12046;44.702;10.622;2022-08-14T08:25:43;27.10;87.10
23731;DHT22;12046;44.702;10.622;2022-08-14T08:30:39;27.40;86.50
23731;DHT22;12046;44.702;10.622;2022-08-14T08:33:06;27.50;86.40
23731;DHT22;12046;44.702;10.622;2022-08-14T08:35:36;27.70;85.80
23731;DHT22;12046;44.702;10.622;2022-08-14T08:38:06;27.80;85.00
23731;DHT22;12046;44.702;10.622;2022-08-14T08:40:38;27.90;85.10
23731;DHT22;12046;44.702;10.622;2022-08-14T08:43:19;28.10;84.90
23731;DHT22;12046;44.702;10.622;2022-08-14T08:46:13;28.10;83.50
23731;DHT22;12046;44.702;10.622;2022-08-14T08:51:23;28.10;84.30
23731;DHT22;12046;44.702;10.622;2022-08-14T08:54:08;28.20;84.10
23731;DHT22;12046;44.702;10.622;2022-08-14T08:59:37;28.60;83.20
23731;DHT22;12046;44.702;10.622;2022-08-14T09:02:07;28.80;83.40
23731;DHT22;12046;44.702;10.622;2022-08-14T09:04:43;29.00;82.80
23731;DHT22;12046;44.702;10.622;2022-08-14T09:07:09;29.10;82.60
23731;DHT22;12046;44.702;10.622;2022-08-14T09:09:36;29.30;82.30
23731;DHT22;12046;44.702;10.622;2022-08-14T09:12:16;29.30;82.10
23731;DHT22;12046;44.702;10.622;2022-08-14T09:14:44;29.40;81.90
23731;DHT22;12046;44.702;10.622;2022-08-14T09:17:12;29.50;82.00
23731;DHT22;12046;44.702;10.622;2022-08-14T09:19:38;29.60;81.20
23731;DHT22;12046;44.702;10.622;2022-08-14T09:22:05;29.70;81.10
23731;DHT22;12046;44.702;10.622;2022-08-14T09:24:31;29.70;81.60
23731;DHT22;12046;44.702;10.622;2022-08-14T09:27:00;29.90;80.50
23731;DHT22;12046;44.702;10.622;2022-08-14T09:29:26;29.90;80.10
23731;DHT22;12046;44.702;10.622;2022-08-14T09:31:57;30.00;79.70
23731;DHT22;12046;44.702;10.622;2022-08-14T09:34:38;30.00;79.00
23731;DHT22;12046;44.702;10.622;2022-08-14T09:37:47;30.10;78.90
23731;DHT22;12046;44.702;10.622;2022-08-14T09:43:40;30.10;78.20
23731;DHT22;12046;44.702;10.622;2022-08-14T09:46:08;29.90;78.50
23731;DHT22;12046;44.702;10.622;2022-08-14T09:48:35;29.90;78.20
23731;DHT22;12046;44.702;10.622;2022-08-14T09:51:03;30.10;78.40
23731;DHT22;12046;44.702;10.622;2022-08-14T09:53:44;30.20;78.20
23731;DHT22;12046;44.702;10.622;2022-08-14T09:56:12;30.50;77.50
23731;DHT22;12046;44.702;10.622;2022-08-14T09:58:43;30.60;76.90
23731;DHT22;12046;44.702;10.622;2022-08-14T10:01:15;30.70;76.50
23731;DHT22;12046;44.702;10.622;2022-08-14T10:03:50;30.80;76.20
23731;DHT22;12046;44.702;10.622;2022-08-14T10:06:22;30.80;76.00
23731;DHT22;12046;44.702;10.622;2022-08-14T10:09:11;30.80;75.20
23731;DHT22;12046;44.702;10.622;2022-08-14T10:11:39;30.80;76.60
23731;DHT22;12046;44.702;10.622;2022-08-14T10:14:18;30.80;75.20
23731;DHT22;12046;44.702;10.622;2022-08-14T10:16:50;30.80;76.20
23731;DHT22;12046;44.702;10.622;2022-08-14T10:19:25;30.80;76.10
23731;DHT22;12046;44.702;10.622;2022-08-14T10:22:05;30.80;75.40
23731;DHT22;12046;44.702;10.622;2022-08-14T10:24:39;30.80;76.50
23731;DHT22;12046;44.702;10.622;2022-08-14T10:27:17;30.90;76.20
23731;DHT22;12046;44.702;10.622;2022-08-14T10:29:51;31.10;75.70
23731;DHT22;12046;44.702;10.622;2022-08-14T10:32:19;31.20;73.50
23731;DHT22;12046;44.702;10.622;2022-08-14T10:34:48;31.20;74.10
23731;DHT22;12046;44.702;10.622;2022-08-14T10:37:16;31.30;74.90
23731;DHT22;12046;44.702;10.622;2022-08-14T10:39:44;31.50;75.10
23731;DHT22;12046;44.702;10.622;2022-08-14T10:42:12;31.60;75.20
23731;DHT22;12046;44.702;10.622;2022-08-14T10:44:42;31.60;74.40
23731;DHT22;12046;44.702;10.622;2022-08-14T10:47:12;31.50;73.20
23731;DHT22;12046;44.702;10.622;2022-08-14T10:49:43;31.30;73.70
23731;DHT22;12046;44.702;10.622;2022-08-14T10:52:22;31.40;74.80
23731;DHT22;12046;44.702;10.622;2022-08-14T10:54:50;31.60;74.60
23731;DHT22;12046;44.702;10.622;2022-08-14T10:57:18;31.60;74.90
23731;DHT22;12046;44.702;10.622;2022-08-14T11:00:11;31.70;74.30
23731;DHT22;12046;44.702;10.622;2022-08-14T11:02:40;31.80;73.40
23731;DHT22;12046;44.702;10.622;2022-08-14T11:05:13;31.80;72.50
23731;DHT22;12046;44.702;10.622;2022-08-14T11:08:00;31.90;72.60
23731;DHT22;12046;44.702;10.622;2022-08-14T11:13:04;32.00;71.20
23731;DHT22;12046;44.702;10.622;2022-08-14T11:15:37;32.20;72.00
23731;DHT22;12046;44.702;10.622;2022-08-14T11:18:03;32.40;72.00
23731;DHT22;12046;44.702;10.622;2022-08-14T11:20:33;32.40;70.50
23731;DHT22;12046;44.702;10.622;2022-08-14T11:23:00;32.50;71.40
23731;DHT22;12046;44.702;10.622;2022-08-14T11:25:28;32.60;70.40
23731;DHT22;12046;44.702;10.622;2022-08-14T11:28:01;32.50;70.10
23731;DHT22;12046;44.702;10.622;2022-08-14T11:30:28;32.50;70.50
23731;DHT22;12046;44.702;10.622;2022-08-14T11:32:56;32.60;70.40
23731;DHT22;12046;44.702;10.622;2022-08-14T11:35:25;32.60;70.10
23731;DHT22;12046;44.702;10.622;2022-08-14T11:40:19;32.60;68.60
23731;DHT22;12046;44.702;10.622;2022-08-14T11:42:47;32.50;68.70
23731;DHT22;12046;44.702;10.622;2022-08-14T11:45:15;32.40;69.00
23731;DHT22;12046;44.702;10.622;2022-08-14T11:47:42;32.60;68.40
23731;DHT22;12046;44.702;10.622;2022-08-14T11:50:20;32.80;67.70
23731;DHT22;12046;44.702;10.622;2022-08-14T11:52:48;33.10;67.40
23731;DHT22;12046;44.702;10.622;2022-08-14T11:55:15;33.30;67.70
23731;DHT22;12046;44.702;10.622;2022-08-14T11:57:43;33.30;67.30
23731;DHT22;12046;44.702;10.622;2022-08-14T12:00:12;33.30;66.50
23731;DHT22;12046;44.702;10.622;2022-08-14T12:03:10;33.30;65.90
23731;DHT22;12046;44.702;10.622;2022-08-14T12:05:38;33.20;65.80
23731;DHT22;12046;44.702;10.622;2022-08-14T12:08:08;33.30;65.90
23731;DHT22;12046;44.702;10.622;2022-08-14T12:10:36;33.40;65.00
23731;DHT22;12046;44.702;10.622;2022-08-14T12:13:13;33.50;64.80
23731;DHT22;12046;44.702;10.622;2022-08-14T12:15:43;33.30;65.30
23731;DHT22;12046;44.702;10.622;2022-08-14T12:18:10;33.30;64.80
23731;DHT22;12046;44.702;10.622;2022-08-14T12:20:40;33.20;66.40
23731;DHT22;12046;44.702;10.622;2022-08-14T12:23:29;33.10;65.40
23731;DHT22;12046;44.702;10.622;2022-08-14T12:26:06;33.10;65.30
23731;DHT22;12046;44.702;10.622;2022-08-14T12:28:33;33.10;65.70
23731;DHT22;12046;44.702;10.622;2022-08-14T12:30:59;33.20;65.30
23731;DHT22;12046;44.702;10.622;2022-08-14T12:33:36;33.50;64.50
23731;DHT22;12046;44.702;10.622;2022-08-14T12:36:07;33.50;63.50
23731;DHT22;12046;44.702;10.622;2022-08-14T12:38:39;33.60;62.10
23731;DHT22;12046;44.702;10.622;2022-08-14T12:41:13;33.60;62.40
23731;DHT22;12046;44.702;10.622;2022-08-14T12:43:52;33.90;62.40
23731;DHT22;12046;44.702;10.622;2022-08-14T12:46:28;34.20;62.30
23731;DHT22;12046;44.702;10.622;2022-08-14T12:48:58;34.50;61.90
23731;DHT22;12046;44.702;10.622;2022-08-14T12:51:26;34.70;61.50
23731;DHT22;12046;44.702;10.622;2022-08-14T12:53:54;34.70;61.70
23731;DHT22;12046;44.702;10.622;2022-08-14T12:56:21;34.60;61.40
23731;DHT22;12046;44.702;10.622;2022-08-14T12:58:52;34.60;60.60
23731;DHT22;12046;44.702;10.622;2022-08-14T13:03:46;34.50;60.30
23731;DHT22;12046;44.702;10.622;2022-08-14T13:06:14;34.40;60.80
23731;DHT22;12046;44.702;10.622;2022-08-14T13:08:40;34.40;61.20
23731;DHT22;12046;44.702;10.622;2022-08-14T13:11:13;34.50;61.70
23731;DHT22;12046;44.702;10.622;2022-08-14T13:13:41;34.60;61.00
23731;DHT22;12046;44.702;10.622;2022-08-14T13:16:10;34.70;60.60
23731;DHT22;12046;44.702;10.622;2022-08-14T13:18:42;34.50;61.00
23731;DHT22;12046;44.702;10.622;2022-08-14T13:21:12;34.40;61.80
23731;DHT22;12046;44.702;10.622;2022-08-14T13:23:40;34.40;61.10
23731;DHT22;12046;44.702;10.622;2022-08-14T13:26:12;34.30;61.00
23731;DHT22;12046;44.702;10.622;2022-08-14T13:28:39;34.40;61.40
23731;DHT22;12046;44.702;10.622;2022-08-14T13:31:08;34.40;61.40
23731;DHT22;12046;44.702;10.622;2022-08-14T13:33:35;34.40;61.50
23731;DHT22;12046;44.702;10.622;2022-08-14T13:36:02;34.20;61.50
23731;DHT22;12046;44.702;10.622;2022-08-14T13:38:28;34.20;61.40
23731;DHT22;12046;44.702;10.622;2022-08-14T13:40:56;34.20;61.70
23731;DHT22;12046;44.702;10.622;2022-08-14T13:43:23;34.30;61.50
23731;DHT22;12046;44.702;10.622;2022-08-14T13:45:50;34.40;60.90
23731;DHT22;12046;44.702;10.622;2022-08-14T13:48:17;34.40;60.80
23731;DHT22;12046;44.702;10.622;2022-08-14T13:50:44;34.40;61.10
23731;DHT22;12046;44.702;10.622;2022-08-14T13:53:12;34.40;61.20
23731;DHT22;12046;44.702;10.622;2022-08-14T13:55:41;34.50;61.40
23731;DHT22;12046;44.702;10.622;2022-08-14T13:58:13;34.50;61.10
23731;DHT22;12046;44.702;10.622;2022-08-14T14:00:39;34.50;61.20
23731;DHT22;12046;44.702;10.622;2022-08-14T14:03:06;34.50;61.10
23731;DHT22;12046;44.702;10.622;2022-08-14T14:05:35;34.50;60.90
23731;DHT22;12046;44.702;10.622;2022-08-14T14:08:04;34.40;61.20
23731;DHT22;12046;44.702;10.622;2022-08-14T14:10:35;34.30;60.70
23731;DHT22;12046;44.702;10.622;2022-08-14T14:13:02;34.40;60.40
23731;DHT22;12046;44.702;10.622;2022-08-14T14:15:30;34.30;60.90
23731;DHT22;12046;44.702;10.622;2022-08-14T14:17:56;34.20;60.70
23731;DHT22;12046;44.702;10.622;2022-08-14T14:20:25;34.00;60.90
23731;DHT22;12046;44.702;10.622;2022-08-14T14:22:51;33.90;61.50
23731;DHT22;12046;44.702;10.622;2022-08-14T14:25:18;34.00;61.70
23731;DHT22;12046;44.702;10.622;2022-08-14T14:27:46;34.00;61.50
23731;DHT22;12046;44.702;10.622;2022-08-14T14:30:17;34.20;61.60
23731;DHT22;12046;44.702;10.622;2022-08-14T14:32:46;34.30;61.50
23731;DHT22;12046;44.702;10.622;2022-08-14T14:35:15;34.40;61.40
23731;DHT22;12046;44.702;10.622;2022-08-14T14:37:43;34.50;61.30
23731;DHT22;12046;44.702;10.622;2022-08-14T14:40:12;34.50;61.40
23731;DHT22;12046;44.702;10.622;2022-08-14T14:42:47;34.50;61.30
23731;DHT22;12046;44.702;10.622;2022-08-14T14:45:16;34.40;61.50
23731;DHT22;12046;44.702;10.622;2022-08-14T14:47:48;34.50;61.50
23731;DHT22;12046;44.702;10.622;2022-08-14T14:50:17;34.60;61.30
23731;DHT22;12046;44.702;10.622;2022-08-14T14:52:43;34.70;60.50
23731;DHT22;12046;44.702;10.622;2022-08-14T14:55:10;34.70;60.30
23731;DHT22;12046;44.702;10.622;2022-08-14T14:57:41;34.50;60.90
23731;DHT22;12046;44.702;10.622;2022-08-14T15:00:09;34.40;61.30
23731;DHT22;12046;44.702;10.622;2022-08-14T15:02:42;34.50;61.50
23731;DHT22;12046;44.702;10.622;2022-08-14T15:05:09;34.60;61.00
23731;DHT22;12046;44.702;10.622;2022-08-14T15:07:37;34.60;61.20
23731;DHT22;12046;44.702;10.622;2022-08-14T15:10:07;34.50;61.20
23731;DHT22;12046;44.702;10.622;2022-08-14T15:12:34;34.50;61.40
23731;DHT22;12046;44.702;10.622;2022-08-14T15:15:00;34.50;61.70
23731;DHT22;12046;44.702;10.622;2022-08-14T15:17:26;34.50;61.50
23731;DHT22;12046;44.702;10.622;2022-08-14T15:20:10;34.50;60.90
23731;DHT22;12046;44.702;10.622;2022-08-14T15:22:37;34.40;61.00
23731;DHT22;12046;44.702;10.622;2022-08-14T15:25:11;34.20;60.90
23731;DHT22;12046;44.702;10.622;2022-08-14T15:27:40;34.10;61.30
23731;DHT22;12046;44.702;10.622;2022-08-14T15:30:12;34.00;61.10
23731;DHT22;12046;44.702;10.622;2022-08-14T15:32:54;33.80;61.20
23731;DHT22;12046;44.702;10.622;2022-08-14T15:35:21;33.60;62.00
23731;DHT22;12046;44.702;10.622;2022-08-14T15:37:49;33.60;62.30
23731;DHT22;12046;44.702;10.622;2022-08-14T15:40:16;33.80;62.00
23731;DHT22;12046;44.702;10.622;2022-08-14T15:42:43;33.90;62.00
23731;DHT22;12046;44.702;10.622;2022-08-14T15:45:10;33.90;62.10
23731;DHT22;12046;44.702;10.622;2022-08-14T15:47:37;34.00;61.90